Airfield :
LOGIN :

Register | Disclaimer

   EN    FR    IT 

 










Legend :    VFR   Marginal VFR   IFR   Intensive IFR   Very Intensive IFR
Visi :
Ceiling :
>= 8 km
>= 3000ft
5 to 8 km
1000 to 3000 ft
1500m to 5 km
500 to 1000 ft
800 to 1500m
200 to 500 ft
< 800m
< 200 ft
Symbols :   Thunderstorms  Fog  Heavy snow  Heavy precipitations  Wind > 20 kt
SIGMETs :     Misc.  Thunderstorms  Icing  Turbulence  Mountain Waves  Volcanic Ashes







- Airport Elevation : 461 ft
- IATA code : WIE


ETOU - Wiesbaden Army

CURRENT METAR :
  • 160846Z AUTO 00000KT 9999 SCT019 OVC043 02/01 A2979 RMK AO2 SLP097 $

EXPIRED METARs :
  • 160756Z AUTO 00000KT 9999 OVC017 02/01 A2977 RMK AO2 SLP090 T00190009 $
  • 160746Z AUTO 00000KT 9999 BKN018 OVC038 02/01 A2977 RMK AO2 SLP090 $
  • 160656Z AUTO 00000KT 9999 OVC037 02/01 A2973 RMK AO2 SLP076 T00150005 $
  • 160556Z AUTO 00000KT 9999 OVC037 02/00 A2972 RMK AO2 SLP073 T00160004 10026 20014 52023 $

TAF AMD TAF ETOU
Valid from the 15 at 17:00 until the 16 at 17:00 UTC


151724Z 1517/1617 24006KT 9999 BKN030 QNH2941INS
BECMG 1520/1521 VRB03KT 3200 BR SCT040 QNH2950INS
TEMPO 1521/1603 2400 BR
BECMG 1604/1605 32006KT 8000 BR BKN020 QNH2968INS
BECMG 1610/1611 28009KT 9999 NSW BKN015 QNH2980INS TX03/1614Z TN00/1603Z LAST NO AMDS AFT 1517 NEXT 1803
No reported NOTAMs for that airfield.



MET'MAP, your aeronautical weather chart ! - Copyright ORBIFLY December 2007 - Disclaimer

ORBIFLY MET'MAP TEAM :

Programming & Development : Alexandra Zaïnal
Concept & Development : Baudouin d'Aumeries
Co-Development & Prog : Marc-Olivier Méhu
Technical & hardware support : Manuel Goepfert

Contact : metmap@orbifly.com




SOURCES & CREDITS :

   NOAA